sensor_id;sensor_type;location;lat;lon;timestamp;P1;durP1;ratioP1;P2;durP2;ratioP2
13202;SDS011;6666;51.626;7.530;2023-12-20T00:01:22;20.70;;;12.05;;
13202;SDS011;6666;51.626;7.530;2023-12-20T00:03:50;17.50;;;12.00;;
13202;SDS011;6666;51.626;7.530;2023-12-20T00:06:18;19.15;;;11.98;;
13202;SDS011;6666;51.626;7.530;2023-12-20T00:08:46;20.95;;;12.00;;
13202;SDS011;6666;51.626;7.530;2023-12-20T00:11:15;21.48;;;12.60;;
13202;SDS011;6666;51.626;7.530;2023-12-20T00:13:44;19.85;;;12.57;;
13202;SDS011;6666;51.626;7.530;2023-12-20T00:16:17;20.48;;;11.45;;
13202;SDS011;6666;51.626;7.530;2023-12-20T00:18:45;20.17;;;11.70;;
13202;SDS011;6666;51.626;7.530;2023-12-20T00:21:14;18.63;;;11.52;;
13202;SDS011;6666;51.626;7.530;2023-12-20T00:23:42;17.95;;;11.35;;
13202;SDS011;6666;51.626;7.530;2023-12-20T00:26:10;23.83;;;11.30;;
13202;SDS011;6666;51.626;7.530;2023-12-20T00:28:38;19.25;;;10.90;;
13202;SDS011;6666;51.626;7.530;2023-12-20T00:31:07;20.23;;;10.97;;
13202;SDS011;6666;51.626;7.530;2023-12-20T00:33:35;21.73;;;12.20;;
13202;SDS011;6666;51.626;7.530;2023-12-20T00:36:04;22.35;;;11.90;;
13202;SDS011;6666;51.626;7.530;2023-12-20T00:38:32;23.30;;;12.50;;
13202;SDS011;6666;51.626;7.530;2023-12-20T00:41:00;23.45;;;12.90;;
13202;SDS011;6666;51.626;7.530;2023-12-20T00:43:30;25.13;;;13.43;;
13202;SDS011;6666;51.626;7.530;2023-12-20T00:45:58;24.60;;;15.38;;
13202;SDS011;6666;51.626;7.530;2023-12-20T00:48:27;23.90;;;13.57;;
13202;SDS011;6666;51.626;7.530;2023-12-20T00:50:56;25.38;;;13.65;;
13202;SDS011;6666;51.626;7.530;2023-12-20T00:53:25;25.60;;;14.52;;
13202;SDS011;6666;51.626;7.530;2023-12-20T00:55:53;26.60;;;13.70;;
13202;SDS011;6666;51.626;7.530;2023-12-20T00:58:21;21.50;;;12.80;;
13202;SDS011;6666;51.626;7.530;2023-12-20T01:00:49;22.00;;;11.93;;
13202;SDS011;6666;51.626;7.530;2023-12-20T01:03:17;23.85;;;13.20;;
13202;SDS011;6666;51.626;7.530;2023-12-20T01:05:47;22.67;;;12.40;;
13202;SDS011;6666;51.626;7.530;2023-12-20T01:08:15;17.37;;;11.40;;
13202;SDS011;6666;51.626;7.530;2023-12-20T01:10:43;19.25;;;10.40;;
13202;SDS011;6666;51.626;7.530;2023-12-20T01:13:11;19.83;;;11.10;;
13202;SDS011;6666;51.626;7.530;2023-12-20T01:15:38;18.58;;;9.35;;
13202;SDS011;6666;51.626;7.530;2023-12-20T01:18:06;17.63;;;9.25;;
13202;SDS011;6666;51.626;7.530;2023-12-20T01:20:35;17.65;;;8.77;;
13202;SDS011;6666;51.626;7.530;2023-12-20T01:23:05;15.00;;;8.43;;
13202;SDS011;6666;51.626;7.530;2023-12-20T01:25:33;12.65;;;6.90;;
13202;SDS011;6666;51.626;7.530;2023-12-20T01:28:01;12.60;;;7.00;;
13202;SDS011;6666;51.626;7.530;2023-12-20T01:30:29;16.23;;;6.80;;
13202;SDS011;6666;51.626;7.530;2023-12-20T01:32:59;18.10;;;6.35;;
13202;SDS011;6666;51.626;7.530;2023-12-20T01:35:27;12.23;;;6.32;;
13202;SDS011;6666;51.626;7.530;2023-12-20T01:37:55;14.57;;;5.53;;
13202;SDS011;6666;51.626;7.530;2023-12-20T01:40:25;10.13;;;4.40;;
13202;SDS011;6666;51.626;7.530;2023-12-20T01:42:59;10.77;;;4.25;;
13202;SDS011;6666;51.626;7.530;2023-12-20T01:45:27;9.48;;;4.00;;
13202;SDS011;6666;51.626;7.530;2023-12-20T01:47:56;12.85;;;4.70;;
13202;SDS011;6666;51.626;7.530;2023-12-20T01:50:26;10.52;;;5.00;;
13202;SDS011;6666;51.626;7.530;2023-12-20T01:52:55;13.45;;;5.30;;
13202;SDS011;6666;51.626;7.530;2023-12-20T01:55:27;13.98;;;4.95;;
13202;SDS011;6666;51.626;7.530;2023-12-20T01:57:58;15.55;;;6.13;;
13202;SDS011;6666;51.626;7.530;2023-12-20T02:00:27;18.13;;;5.63;;
13202;SDS011;6666;51.626;7.530;2023-12-20T02:02:56;11.98;;;5.50;;
13202;SDS011;6666;51.626;7.530;2023-12-20T02:05:28;17.77;;;6.00;;
13202;SDS011;6666;51.626;7.530;2023-12-20T02:07:57;15.45;;;5.65;;
13202;SDS011;6666;51.626;7.530;2023-12-20T02:10:25;18.00;;;6.00;;
13202;SDS011;6666;51.626;7.530;2023-12-20T02:12:55;21.45;;;6.50;;
13202;SDS011;6666;51.626;7.530;2023-12-20T02:15:23;18.10;;;5.85;;
13202;SDS011;6666;51.626;7.530;2023-12-20T02:17:52;21.60;;;6.20;;
13202;SDS011;6666;51.626;7.530;2023-12-20T02:20:20;22.63;;;6.50;;
13202;SDS011;6666;51.626;7.530;2023-12-20T02:22:50;21.27;;;7.32;;
13202;SDS011;6666;51.626;7.530;2023-12-20T02:25:18;16.55;;;5.85;;
13202;SDS011;6666;51.626;7.530;2023-12-20T02:27:46;25.60;;;7.63;;
13202;SDS011;6666;51.626;7.530;2023-12-20T02:30:15;23.38;;;6.72;;
13202;SDS011;6666;51.626;7.530;2023-12-20T02:32:44;24.70;;;6.43;;
13202;SDS011;6666;51.626;7.530;2023-12-20T02:35:12;19.40;;;6.60;;
13202;SDS011;6666;51.626;7.530;2023-12-20T02:37:40;25.88;;;6.50;;
13202;SDS011;6666;51.626;7.530;2023-12-20T02:40:10;20.38;;;6.70;;
13202;SDS011;6666;51.626;7.530;2023-12-20T02:42:38;22.92;;;6.90;;
13202;SDS011;6666;51.626;7.530;2023-12-20T02:45:07;28.88;;;7.78;;
13202;SDS011;6666;51.626;7.530;2023-12-20T02:47:35;24.90;;;7.00;;
13202;SDS011;6666;51.626;7.530;2023-12-20T02:50:03;28.63;;;6.63;;
13202;SDS011;6666;51.626;7.530;2023-12-20T02:52:32;30.65;;;7.28;;
13202;SDS011;6666;51.626;7.530;2023-12-20T02:55:00;14.73;;;5.70;;
13202;SDS011;6666;51.626;7.530;2023-12-20T02:57:29;15.25;;;5.53;;
13202;SDS011;6666;51.626;7.530;2023-12-20T02:59:58;14.30;;;5.87;;
13202;SDS011;6666;51.626;7.530;2023-12-20T03:02:26;14.20;;;5.55;;
13202;SDS011;6666;51.626;7.530;2023-12-20T03:04:55;21.08;;;5.80;;
13202;SDS011;6666;51.626;7.530;2023-12-20T03:07:23;23.90;;;6.38;;
13202;SDS011;6666;51.626;7.530;2023-12-20T03:09:51;28.90;;;6.53;;
13202;SDS011;6666;51.626;7.530;2023-12-20T03:12:40;25.42;;;6.20;;
13202;SDS011;6666;51.626;7.530;2023-12-20T03:15:09;19.15;;;5.68;;
13202;SDS011;6666;51.626;7.530;2023-12-20T03:17:37;20.88;;;6.32;;
13202;SDS011;6666;51.626;7.530;2023-12-20T03:20:06;21.27;;;6.30;;
13202;SDS011;6666;51.626;7.530;2023-12-20T03:22:35;22.98;;;5.60;;
13202;SDS011;6666;51.626;7.530;2023-12-20T03:25:04;21.10;;;5.65;;
13202;SDS011;6666;51.626;7.530;2023-12-20T03:27:32;25.30;;;5.40;;
13202;SDS011;6666;51.626;7.530;2023-12-20T03:30:02;20.67;;;5.57;;
13202;SDS011;6666;51.626;7.530;2023-12-20T03:32:30;18.75;;;5.22;;
13202;SDS011;6666;51.626;7.530;2023-12-20T03:34:58;19.30;;;5.72;;
13202;SDS011;6666;51.626;7.530;2023-12-20T03:37:27;20.63;;;5.90;;
13202;SDS011;6666;51.626;7.530;2023-12-20T03:39:55;19.38;;;5.47;;
13202;SDS011;6666;51.626;7.530;2023-12-20T03:42:23;16.98;;;6.47;;
13202;SDS011;6666;51.626;7.530;2023-12-20T03:44:51;17.85;;;6.07;;
13202;SDS011;6666;51.626;7.530;2023-12-20T03:47:21;22.98;;;6.22;;
13202;SDS011;6666;51.626;7.530;2023-12-20T03:49:49;29.02;;;6.03;;
13202;SDS011;6666;51.626;7.530;2023-12-20T03:52:17;24.75;;;6.50;;
13202;SDS011;6666;51.626;7.530;2023-12-20T03:54:45;24.23;;;7.13;;
13202;SDS011;6666;51.626;7.530;2023-12-20T03:57:14;25.00;;;6.00;;
13202;SDS011;6666;51.626;7.530;2023-12-20T03:59:42;18.13;;;6.10;;
13202;SDS011;6666;51.626;7.530;2023-12-20T04:02:10;15.48;;;6.20;;
13202;SDS011;6666;51.626;7.530;2023-12-20T04:04:39;18.60;;;5.63;;
13202;SDS011;6666;51.626;7.530;2023-12-20T04:07:08;15.80;;;6.07;;
13202;SDS011;6666;51.626;7.530;2023-12-20T04:09:36;19.73;;;6.00;;
13202;SDS011;6666;51.626;7.530;2023-12-20T04:12:05;16.13;;;6.35;;
13202;SDS011;6666;51.626;7.530;2023-12-20T04:14:34;14.30;;;6.60;;
13202;SDS011;6666;51.626;7.530;2023-12-20T04:17:02;17.63;;;6.43;;
13202;SDS011;6666;51.626;7.530;2023-12-20T04:19:30;20.40;;;6.78;;
13202;SDS011;6666;51.626;7.530;2023-12-20T04:22:00;25.85;;;6.35;;
13202;SDS011;6666;51.626;7.530;2023-12-20T04:24:28;18.70;;;5.70;;
13202;SDS011;6666;51.626;7.530;2023-12-20T04:26:56;22.23;;;5.90;;
13202;SDS011;6666;51.626;7.530;2023-12-20T04:29:24;16.38;;;5.88;;
13202;SDS011;6666;51.626;7.530;2023-12-20T04:31:52;15.70;;;5.70;;
13202;SDS011;6666;51.626;7.530;2023-12-20T04:34:21;16.98;;;5.10;;
13202;SDS011;6666;51.626;7.530;2023-12-20T04:36:50;13.87;;;5.37;;
13202;SDS011;6666;51.626;7.530;2023-12-20T04:39:20;16.70;;;4.80;;
13202;SDS011;6666;51.626;7.530;2023-12-20T04:41:48;15.82;;;5.63;;
13202;SDS011;6666;51.626;7.530;2023-12-20T04:44:16;19.20;;;5.35;;
13202;SDS011;6666;51.626;7.530;2023-12-20T04:46:44;15.85;;;5.78;;
13202;SDS011;6666;51.626;7.530;2023-12-20T04:49:12;20.30;;;5.80;;
13202;SDS011;6666;51.626;7.530;2023-12-20T04:51:41;19.53;;;6.40;;
13202;SDS011;6666;51.626;7.530;2023-12-20T04:54:09;20.90;;;6.70;;
13202;SDS011;6666;51.626;7.530;2023-12-20T04:56:38;20.75;;;7.43;;
13202;SDS011;6666;51.626;7.530;2023-12-20T04:59:06;17.67;;;6.67;;
13202;SDS011;6666;51.626;7.530;2023-12-20T05:01:35;23.52;;;6.53;;
13202;SDS011;6666;51.626;7.530;2023-12-20T05:04:03;23.52;;;7.28;;
13202;SDS011;6666;51.626;7.530;2023-12-20T05:06:31;22.40;;;7.27;;
13202;SDS011;6666;51.626;7.530;2023-12-20T05:09:00;20.67;;;7.40;;
13202;SDS011;6666;51.626;7.530;2023-12-20T05:11:28;21.17;;;7.88;;
13202;SDS011;6666;51.626;7.530;2023-12-20T05:13:59;23.15;;;7.35;;
13202;SDS011;6666;51.626;7.530;2023-12-20T05:16:27;44.95;;;8.90;;
13202;SDS011;6666;51.626;7.530;2023-12-20T05:18:56;19.67;;;8.10;;
13202;SDS011;6666;51.626;7.530;2023-12-20T05:21:25;21.40;;;7.88;;
13202;SDS011;6666;51.626;7.530;2023-12-20T05:23:53;21.77;;;7.97;;
13202;SDS011;6666;51.626;7.530;2023-12-20T05:26:21;21.40;;;7.80;;
13202;SDS011;6666;51.626;7.530;2023-12-20T05:28:49;20.60;;;7.80;;
13202;SDS011;6666;51.626;7.530;2023-12-20T05:31:19;19.75;;;7.50;;
13202;SDS011;6666;51.626;7.530;2023-12-20T05:33:47;24.67;;;7.60;;
13202;SDS011;6666;51.626;7.530;2023-12-20T05:36:15;22.52;;;7.05;;
13202;SDS011;6666;51.626;7.530;2023-12-20T05:38:43;18.80;;;6.40;;
13202;SDS011;6666;51.626;7.530;2023-12-20T05:41:11;19.75;;;6.68;;
13202;SDS011;6666;51.626;7.530;2023-12-20T05:43:39;18.67;;;7.20;;
13202;SDS011;6666;51.626;7.530;2023-12-20T05:46:09;17.60;;;6.65;;
13202;SDS011;6666;51.626;7.530;2023-12-20T05:48:39;21.25;;;7.20;;
13202;SDS011;6666;51.626;7.530;2023-12-20T05:51:07;18.75;;;7.30;;
13202;SDS011;6666;51.626;7.530;2023-12-20T05:53:38;20.45;;;7.63;;
13202;SDS011;6666;51.626;7.530;2023-12-20T05:56:06;22.13;;;8.18;;
13202;SDS011;6666;51.626;7.530;2023-12-20T05:58:34;18.90;;;7.75;;
13202;SDS011;6666;51.626;7.530;2023-12-20T06:01:03;17.23;;;8.90;;
13202;SDS011;6666;51.626;7.530;2023-12-20T06:03:32;19.20;;;8.48;;
13202;SDS011;6666;51.626;7.530;2023-12-20T06:06:05;20.83;;;7.70;;
13202;SDS011;6666;51.626;7.530;2023-12-20T06:08:42;23.25;;;8.73;;
13202;SDS011;6666;51.626;7.530;2023-12-20T06:11:11;19.30;;;7.93;;
13202;SDS011;6666;51.626;7.530;2023-12-20T06:13:40;23.40;;;8.40;;
13202;SDS011;6666;51.626;7.530;2023-12-20T06:16:08;25.63;;;8.30;;
13202;SDS011;6666;51.626;7.530;2023-12-20T06:18:36;18.27;;;7.63;;
13202;SDS011;6666;51.626;7.530;2023-12-20T06:21:06;21.20;;;8.40;;
13202;SDS011;6666;51.626;7.530;2023-12-20T06:23:34;23.10;;;7.57;;
13202;SDS011;6666;51.626;7.530;2023-12-20T06:26:03;27.10;;;7.97;;
13202;SDS011;6666;51.626;7.530;2023-12-20T06:28:31;24.00;;;8.10;;
13202;SDS011;6666;51.626;7.530;2023-12-20T06:31:00;24.97;;;7.70;;
13202;SDS011;6666;51.626;7.530;2023-12-20T06:33:28;18.77;;;8.20;;
13202;SDS011;6666;51.626;7.530;2023-12-20T06:35:57;17.35;;;7.70;;
13202;SDS011;6666;51.626;7.530;2023-12-20T06:38:26;25.75;;;8.02;;
13202;SDS011;6666;51.626;7.530;2023-12-20T06:40:54;23.35;;;7.43;;
13202;SDS011;6666;51.626;7.530;2023-12-20T06:43:24;19.75;;;7.22;;
13202;SDS011;6666;51.626;7.530;2023-12-20T06:45:56;22.38;;;7.85;;
13202;SDS011;6666;51.626;7.530;2023-12-20T06:48:25;19.40;;;8.07;;
13202;SDS011;6666;51.626;7.530;2023-12-20T06:50:53;25.35;;;8.90;;
13202;SDS011;6666;51.626;7.530;2023-12-20T06:53:22;21.17;;;7.43;;
13202;SDS011;6666;51.626;7.530;2023-12-20T06:55:51;18.58;;;8.25;;
13202;SDS011;6666;51.626;7.530;2023-12-20T06:58:19;21.45;;;8.13;;
13202;SDS011;6666;51.626;7.530;2023-12-20T07:00:47;21.92;;;7.68;;
13202;SDS011;6666;51.626;7.530;2023-12-20T07:03:16;17.17;;;7.10;;
13202;SDS011;6666;51.626;7.530;2023-12-20T07:05:44;21.15;;;7.55;;
13202;SDS011;6666;51.626;7.530;2023-12-20T07:08:12;17.73;;;7.10;;
13202;SDS011;6666;51.626;7.530;2023-12-20T07:10:41;19.52;;;7.28;;
13202;SDS011;6666;51.626;7.530;2023-12-20T07:13:11;23.98;;;7.60;;
13202;SDS011;6666;51.626;7.530;2023-12-20T07:15:40;22.40;;;7.22;;
13202;SDS011;6666;51.626;7.530;2023-12-20T07:18:10;20.45;;;7.60;;
13202;SDS011;6666;51.626;7.530;2023-12-20T07:20:39;17.83;;;6.55;;
13202;SDS011;6666;51.626;7.530;2023-12-20T07:23:07;16.92;;;7.28;;
13202;SDS011;6666;51.626;7.530;2023-12-20T07:25:35;24.92;;;7.60;;
13202;SDS011;6666;51.626;7.530;2023-12-20T07:28:03;16.20;;;6.15;;
13202;SDS011;6666;51.626;7.530;2023-12-20T07:30:33;18.20;;;7.05;;
13202;SDS011;6666;51.626;7.530;2023-12-20T07:33:02;25.23;;;6.97;;
13202;SDS011;6666;51.626;7.530;2023-12-20T07:35:30;21.38;;;7.07;;
13202;SDS011;6666;51.626;7.530;2023-12-20T07:37:59;18.23;;;6.95;;
13202;SDS011;6666;51.626;7.530;2023-12-20T07:40:27;17.83;;;7.25;;
13202;SDS011;6666;51.626;7.530;2023-12-20T07:42:55;21.58;;;6.65;;
13202;SDS011;6666;51.626;7.530;2023-12-20T07:45:24;18.85;;;7.18;;
13202;SDS011;6666;51.626;7.530;2023-12-20T07:47:54;15.50;;;6.10;;
13202;SDS011;6666;51.626;7.530;2023-12-20T07:50:22;23.25;;;6.90;;
13202;SDS011;6666;51.626;7.530;2023-12-20T07:52:50;19.77;;;6.63;;
13202;SDS011;6666;51.626;7.530;2023-12-20T07:55:19;25.35;;;7.40;;
13202;SDS011;6666;51.626;7.530;2023-12-20T07:57:47;18.35;;;6.30;;
13202;SDS011;6666;51.626;7.530;2023-12-20T08:00:16;16.58;;;6.68;;
13202;SDS011;6666;51.626;7.530;2023-12-20T08:02:44;19.13;;;7.30;;
13202;SDS011;6666;51.626;7.530;2023-12-20T08:05:14;21.33;;;6.53;;
13202;SDS011;6666;51.626;7.530;2023-12-20T08:07:44;21.02;;;7.07;;
13202;SDS011;6666;51.626;7.530;2023-12-20T08:10:12;23.15;;;6.82;;
13202;SDS011;6666;51.626;7.530;2023-12-20T08:12:41;18.85;;;6.20;;
13202;SDS011;6666;51.626;7.530;2023-12-20T08:15:09;18.35;;;6.32;;
13202;SDS011;6666;51.626;7.530;2023-12-20T08:17:37;19.58;;;7.38;;
13202;SDS011;6666;51.626;7.530;2023-12-20T08:20:06;19.25;;;6.95;;
13202;SDS011;6666;51.626;7.530;2023-12-20T08:22:37;22.77;;;7.60;;
13202;SDS011;6666;51.626;7.530;2023-12-20T08:25:05;19.90;;;7.40;;
13202;SDS011;6666;51.626;7.530;2023-12-20T08:27:34;16.90;;;6.60;;
13202;SDS011;6666;51.626;7.530;2023-12-20T08:30:08;19.03;;;6.90;;
13202;SDS011;6666;51.626;7.530;2023-12-20T08:32:36;24.85;;;6.95;;
13202;SDS011;6666;51.626;7.530;2023-12-20T08:35:05;20.35;;;6.57;;
13202;SDS011;6666;51.626;7.530;2023-12-20T08:37:33;15.95;;;5.60;;
13202;SDS011;6666;51.626;7.530;2023-12-20T08:40:04;18.95;;;5.93;;
13202;SDS011;6666;51.626;7.530;2023-12-20T08:42:33;14.68;;;6.05;;
13202;SDS011;6666;51.626;7.530;2023-12-20T08:45:03;18.52;;;5.82;;
13202;SDS011;6666;51.626;7.530;2023-12-20T08:47:32;17.65;;;6.03;;
13202;SDS011;6666;51.626;7.530;2023-12-20T08:50:00;24.77;;;6.30;;
13202;SDS011;6666;51.626;7.530;2023-12-20T08:52:30;18.07;;;5.50;;
13202;SDS011;6666;51.626;7.530;2023-12-20T08:54:58;19.17;;;6.03;;
13202;SDS011;6666;51.626;7.530;2023-12-20T08:57:28;16.60;;;5.70;;
13202;SDS011;6666;51.626;7.530;2023-12-20T08:59:58;19.40;;;6.10;;
13202;SDS011;6666;51.626;7.530;2023-12-20T09:02:26;17.60;;;5.50;;
13202;SDS011;6666;51.626;7.530;2023-12-20T09:04:55;24.17;;;6.32;;
13202;SDS011;6666;51.626;7.530;2023-12-20T09:07:24;23.00;;;6.80;;
13202;SDS011;6666;51.626;7.530;2023-12-20T09:09:54;16.80;;;5.55;;
13202;SDS011;6666;51.626;7.530;2023-12-20T09:12:22;22.40;;;6.57;;
13202;SDS011;6666;51.626;7.530;2023-12-20T09:14:52;18.45;;;5.50;;
13202;SDS011;6666;51.626;7.530;2023-12-20T09:17:20;12.73;;;5.30;;
13202;SDS011;6666;51.626;7.530;2023-12-20T09:19:49;20.95;;;5.57;;
13202;SDS011;6666;51.626;7.530;2023-12-20T09:22:19;20.13;;;5.60;;
13202;SDS011;6666;51.626;7.530;2023-12-20T09:24:47;16.13;;;4.88;;
13202;SDS011;6666;51.626;7.530;2023-12-20T09:27:15;20.85;;;5.97;;
13202;SDS011;6666;51.626;7.530;2023-12-20T09:29:43;18.63;;;5.97;;
13202;SDS011;6666;51.626;7.530;2023-12-20T09:32:13;22.20;;;6.15;;
13202;SDS011;6666;51.626;7.530;2023-12-20T09:34:41;18.55;;;5.38;;
13202;SDS011;6666;51.626;7.530;2023-12-20T09:37:09;19.77;;;5.80;;
13202;SDS011;6666;51.626;7.530;2023-12-20T09:39:36;27.50;;;6.32;;
13202;SDS011;6666;51.626;7.530;2023-12-20T09:42:05;17.83;;;5.40;;
13202;SDS011;6666;51.626;7.530;2023-12-20T09:44:34;18.58;;;5.38;;
13202;SDS011;6666;51.626;7.530;2023-12-20T09:47:03;17.13;;;4.85;;
13202;SDS011;6666;51.626;7.530;2023-12-20T09:49:33;18.48;;;4.85;;
13202;SDS011;6666;51.626;7.530;2023-12-20T09:52:03;18.33;;;5.60;;
13202;SDS011;6666;51.626;7.530;2023-12-20T09:54:35;19.80;;;5.00;;
13202;SDS011;6666;51.626;7.530;2023-12-20T09:57:04;14.57;;;4.90;;
13202;SDS011;6666;51.626;7.530;2023-12-20T09:59:32;16.38;;;5.10;;
13202;SDS011;6666;51.626;7.530;2023-12-20T10:02:01;19.60;;;5.45;;
13202;SDS011;6666;51.626;7.530;2023-12-20T10:04:32;14.88;;;5.00;;
13202;SDS011;6666;51.626;7.530;2023-12-20T10:07:02;19.80;;;5.30;;
13202;SDS011;6666;51.626;7.530;2023-12-20T10:09:32;19.45;;;4.70;;
13202;SDS011;6666;51.626;7.530;2023-12-20T10:12:02;14.40;;;4.50;;
13202;SDS011;6666;51.626;7.530;2023-12-20T10:14:32;18.10;;;4.50;;
13202;SDS011;6666;51.626;7.530;2023-12-20T10:17:03;16.38;;;5.00;;
13202;SDS011;6666;51.626;7.530;2023-12-20T10:19:33;18.77;;;4.90;;
13202;SDS011;6666;51.626;7.530;2023-12-20T10:22:04;13.93;;;4.10;;
13202;SDS011;6666;51.626;7.530;2023-12-20T10:24:32;15.50;;;4.90;;
13202;SDS011;6666;51.626;7.530;2023-12-20T10:27:01;13.32;;;5.00;;
13202;SDS011;6666;51.626;7.530;2023-12-20T10:29:31;17.90;;;4.90;;
13202;SDS011;6666;51.626;7.530;2023-12-20T10:32:22;13.25;;;4.78;;
13202;SDS011;6666;51.626;7.530;2023-12-20T10:34:54;19.88;;;4.85;;
13202;SDS011;6666;51.626;7.530;2023-12-20T10:37:23;11.80;;;4.20;;
13202;SDS011;6666;51.626;7.530;2023-12-20T10:39:51;19.05;;;5.10;;
13202;SDS011;6666;51.626;7.530;2023-12-20T10:42:23;16.15;;;4.75;;
13202;SDS011;6666;51.626;7.530;2023-12-20T10:44:53;12.07;;;4.70;;
13202;SDS011;6666;51.626;7.530;2023-12-20T10:47:22;15.00;;;4.68;;
13202;SDS011;6666;51.626;7.530;2023-12-20T10:49:53;20.77;;;5.55;;
13202;SDS011;6666;51.626;7.530;2023-12-20T10:52:23;14.50;;;4.72;;
13202;SDS011;6666;51.626;7.530;2023-12-20T10:54:52;15.50;;;5.60;;
13202;SDS011;6666;51.626;7.530;2023-12-20T10:57:20;13.52;;;4.82;;
13202;SDS011;6666;51.626;7.530;2023-12-20T10:59:49;19.90;;;5.43;;
13202;SDS011;6666;51.626;7.530;2023-12-20T11:02:21;12.85;;;4.97;;
13202;SDS011;6666;51.626;7.530;2023-12-20T11:04:50;14.93;;;5.30;;
13202;SDS011;6666;51.626;7.530;2023-12-20T11:07:25;15.95;;;5.53;;
13202;SDS011;6666;51.626;7.530;2023-12-20T11:10:10;13.63;;;5.78;;
13202;SDS011;6666;51.626;7.530;2023-12-20T11:12:46;15.40;;;5.78;;
13202;SDS011;6666;51.626;7.530;2023-12-20T11:15:19;20.35;;;5.70;;
13202;SDS011;6666;51.626;7.530;2023-12-20T11:17:54;14.38;;;5.15;;
13202;SDS011;6666;51.626;7.530;2023-12-20T11:20:24;14.00;;;5.40;;
13202;SDS011;6666;51.626;7.530;2023-12-20T11:23:03;13.68;;;5.60;;
13202;SDS011;6666;51.626;7.530;2023-12-20T11:25:34;19.00;;;5.50;;
13202;SDS011;6666;51.626;7.530;2023-12-20T11:28:20;21.10;;;6.05;;
13202;SDS011;6666;51.626;7.530;2023-12-20T11:30:50;18.70;;;5.72;;
13202;SDS011;6666;51.626;7.530;2023-12-20T11:33:22;18.80;;;4.97;;
13202;SDS011;6666;51.626;7.530;2023-12-20T11:35:57;17.05;;;5.05;;
13202;SDS011;6666;51.626;7.530;2023-12-20T11:38:26;17.55;;;5.43;;
13202;SDS011;6666;51.626;7.530;2023-12-20T11:40:54;17.20;;;4.85;;
13202;SDS011;6666;51.626;7.530;2023-12-20T11:43:30;19.20;;;5.50;;
13202;SDS011;6666;51.626;7.530;2023-12-20T11:46:02;15.07;;;5.30;;
13202;SDS011;6666;51.626;7.530;2023-12-20T11:48:33;18.58;;;4.90;;
13202;SDS011;6666;51.626;7.530;2023-12-20T11:51:08;23.10;;;5.97;;
13202;SDS011;6666;51.626;7.530;2023-12-20T11:53:36;15.73;;;5.13;;
13202;SDS011;6666;51.626;7.530;2023-12-20T11:56:05;16.83;;;4.25;;
13202;SDS011;6666;51.626;7.530;2023-12-20T11:58:34;19.33;;;4.45;;
13202;SDS011;6666;51.626;7.530;2023-12-20T12:01:03;15.80;;;4.32;;
13202;SDS011;6666;51.626;7.530;2023-12-20T12:03:34;14.23;;;4.07;;
13202;SDS011;6666;51.626;7.530;2023-12-20T12:06:04;12.27;;;4.70;;
13202;SDS011;6666;51.626;7.530;2023-12-20T12:08:32;13.27;;;4.45;;
13202;SDS011;6666;51.626;7.530;2023-12-20T12:11:00;14.20;;;5.00;;
13202;SDS011;6666;51.626;7.530;2023-12-20T12:13:29;19.77;;;5.15;;
13202;SDS011;6666;51.626;7.530;2023-12-20T12:15:58;13.70;;;5.00;;
13202;SDS011;6666;51.626;7.530;2023-12-20T12:18:26;19.27;;;5.35;;
13202;SDS011;6666;51.626;7.530;2023-12-20T12:20:59;14.40;;;5.30;;
13202;SDS011;6666;51.626;7.530;2023-12-20T12:23:37;15.85;;;5.43;;
13202;SDS011;6666;51.626;7.530;2023-12-20T12:26:05;20.90;;;6.20;;
13202;SDS011;6666;51.626;7.530;2023-12-20T12:28:35;15.05;;;5.93;;
13202;SDS011;6666;51.626;7.530;2023-12-20T12:31:03;11.97;;;6.20;;
13202;SDS011;6666;51.626;7.530;2023-12-20T12:33:31;14.60;;;6.57;;
13202;SDS011;6666;51.626;7.530;2023-12-20T12:36:00;17.07;;;6.50;;
13202;SDS011;6666;51.626;7.530;2023-12-20T12:38:30;15.73;;;7.05;;
13202;SDS011;6666;51.626;7.530;2023-12-20T12:40:59;13.52;;;6.50;;
13202;SDS011;6666;51.626;7.530;2023-12-20T12:43:28;20.50;;;6.93;;
13202;SDS011;6666;51.626;7.530;2023-12-20T12:45:57;12.57;;;6.40;;
13202;SDS011;6666;51.626;7.530;2023-12-20T12:48:25;16.88;;;6.03;;
13202;SDS011;6666;51.626;7.530;2023-12-20T12:50:54;16.52;;;6.03;;
13202;SDS011;6666;51.626;7.530;2023-12-20T12:53:26;14.05;;;5.80;;
13202;SDS011;6666;51.626;7.530;2023-12-20T12:55:54;18.30;;;6.10;;
13202;SDS011;6666;51.626;7.530;2023-12-20T12:58:23;17.33;;;6.35;;
13202;SDS011;6666;51.626;7.530;2023-12-20T13:00:52;15.60;;;6.13;;
13202;SDS011;6666;51.626;7.530;2023-12-20T13:03:21;16.42;;;6.72;;
13202;SDS011;6666;51.626;7.530;2023-12-20T13:05:50;19.05;;;6.47;;
13202;SDS011;6666;51.626;7.530;2023-12-20T13:08:18;18.05;;;6.97;;
13202;SDS011;6666;51.626;7.530;2023-12-20T13:10:47;18.47;;;7.63;;
13202;SDS011;6666;51.626;7.530;2023-12-20T13:13:15;17.60;;;6.88;;
13202;SDS011;6666;51.626;7.530;2023-12-20T13:15:45;16.58;;;7.10;;
13202;SDS011;6666;51.626;7.530;2023-12-20T13:18:18;14.07;;;6.53;;
13202;SDS011;6666;51.626;7.530;2023-12-20T13:20:46;16.70;;;6.28;;
13202;SDS011;6666;51.626;7.530;2023-12-20T13:23:14;15.25;;;6.18;;
13202;SDS011;6666;51.626;7.530;2023-12-20T13:25:44;18.52;;;6.15;;
13202;SDS011;6666;51.626;7.530;2023-12-20T13:28:13;14.40;;;6.10;;
13202;SDS011;6666;51.626;7.530;2023-12-20T13:30:41;17.60;;;6.13;;
13202;SDS011;6666;51.626;7.530;2023-12-20T13:33:11;20.33;;;6.15;;
13202;SDS011;6666;51.626;7.530;2023-12-20T13:35:39;19.80;;;6.18;;
13202;SDS011;6666;51.626;7.530;2023-12-20T13:38:07;16.50;;;6.10;;
13202;SDS011;6666;51.626;7.530;2023-12-20T13:40:35;17.90;;;6.50;;
13202;SDS011;6666;51.626;7.530;2023-12-20T13:43:04;18.92;;;6.03;;
13202;SDS011;6666;51.626;7.530;2023-12-20T13:45:32;17.77;;;5.90;;
13202;SDS011;6666;51.626;7.530;2023-12-20T13:48:00;14.82;;;5.90;;
13202;SDS011;6666;51.626;7.530;2023-12-20T13:50:30;15.70;;;6.40;;
13202;SDS011;6666;51.626;7.530;2023-12-20T13:52:58;16.47;;;6.17;;
13202;SDS011;6666;51.626;7.530;2023-12-20T13:55:27;18.55;;;6.10;;
13202;SDS011;6666;51.626;7.530;2023-12-20T13:57:55;16.15;;;6.40;;
13202;SDS011;6666;51.626;7.530;2023-12-20T14:00:24;16.40;;;6.50;;
13202;SDS011;6666;51.626;7.530;2023-12-20T14:02:52;16.33;;;6.18;;
13202;SDS011;6666;51.626;7.530;2023-12-20T14:05:21;17.27;;;6.77;;
13202;SDS011;6666;51.626;7.530;2023-12-20T14:07:55;17.50;;;6.10;;
13202;SDS011;6666;51.626;7.530;2023-12-20T14:10:25;20.60;;;7.10;;
13202;SDS011;6666;51.626;7.530;2023-12-20T14:12:53;16.77;;;6.88;;
13202;SDS011;6666;51.626;7.530;2023-12-20T14:15:22;13.43;;;6.65;;
13202;SDS011;6666;51.626;7.530;2023-12-20T14:17:52;17.58;;;6.53;;
13202;SDS011;6666;51.626;7.530;2023-12-20T14:20:21;21.13;;;7.30;;
13202;SDS011;6666;51.626;7.530;2023-12-20T14:22:49;16.17;;;6.60;;
13202;SDS011;6666;51.626;7.530;2023-12-20T14:25:19;14.93;;;6.82;;
13202;SDS011;6666;51.626;7.530;2023-12-20T14:27:50;9.23;;;5.82;;
13202;SDS011;6666;51.626;7.530;2023-12-20T14:30:18;15.38;;;6.15;;
13202;SDS011;6666;51.626;7.530;2023-12-20T14:32:46;19.05;;;6.50;;
13202;SDS011;6666;51.626;7.530;2023-12-20T14:35:15;13.30;;;6.80;;
13202;SDS011;6666;51.626;7.530;2023-12-20T14:37:43;13.52;;;7.35;;
13202;SDS011;6666;51.626;7.530;2023-12-20T14:40:12;16.73;;;7.78;;
13202;SDS011;6666;51.626;7.530;2023-12-20T14:42:44;14.60;;;7.50;;
13202;SDS011;6666;51.626;7.530;2023-12-20T14:45:14;23.88;;;10.68;;
13202;SDS011;6666;51.626;7.530;2023-12-20T14:47:43;22.70;;;8.50;;
13202;SDS011;6666;51.626;7.530;2023-12-20T14:50:12;17.30;;;8.10;;
13202;SDS011;6666;51.626;7.530;2023-12-20T14:52:46;16.95;;;8.48;;
13202;SDS011;6666;51.626;7.530;2023-12-20T14:55:14;18.35;;;8.07;;
13202;SDS011;6666;51.626;7.530;2023-12-20T14:57:44;15.43;;;8.60;;